sensor_id;sensor_type;location;lat;lon;timestamp;pressure;altitude;pressure_sealevel;temperature;humidity
56042;BME280;48756;41.374;2.066;2023-04-02T00:02:30;100844.69;;;13.39;76.55
56042;BME280;48756;41.374;2.066;2023-04-02T00:07:47;100870.41;;;13.62;74.76
56042;BME280;48756;41.374;2.066;2023-04-02T00:10:33;100864.44;;;13.54;73.28
56042;BME280;48756;41.374;2.066;2023-04-02T00:15:34;100845.41;;;13.89;73.49
56042;BME280;48756;41.374;2.066;2023-04-02T00:18:00;100842.00;;;13.86;69.32
56042;BME280;48756;41.374;2.066;2023-04-02T00:20:26;100850.22;;;13.67;68.77
56042;BME280;48756;41.374;2.066;2023-04-02T00:22:52;100856.69;;;13.49;65.63
56042;BME280;48756;41.374;2.066;2023-04-02T00:25:18;100851.72;;;13.34;61.25
56042;BME280;48756;41.374;2.066;2023-04-02T00:27:43;100841.63;;;13.62;61.86
56042;BME280;48756;41.374;2.066;2023-04-02T00:30:11;100833.78;;;13.61;58.52
56042;BME280;48756;41.374;2.066;2023-04-02T00:32:37;100833.22;;;13.45;59.37
56042;BME280;48756;41.374;2.066;2023-04-02T00:35:02;100844.66;;;13.41;58.69
56042;BME280;48756;41.374;2.066;2023-04-02T00:37:29;100835.16;;;13.35;57.00
56042;BME280;48756;41.374;2.066;2023-04-02T00:40:06;100843.88;;;13.34;51.83
56042;BME280;48756;41.374;2.066;2023-04-02T00:42:33;100836.88;;;13.36;51.64
56042;BME280;48756;41.374;2.066;2023-04-02T00:45:03;100835.44;;;13.20;48.65
56042;BME280;48756;41.374;2.066;2023-04-02T00:47:33;100829.91;;;13.37;46.95
56042;BME280;48756;41.374;2.066;2023-04-02T00:52:29;100834.59;;;13.20;47.81
56042;BME280;48756;41.374;2.066;2023-04-02T00:54:57;100838.09;;;13.17;47.05
56042;BME280;48756;41.374;2.066;2023-04-02T00:57:27;100836.34;;;13.19;48.97
56042;BME280;48756;41.374;2.066;2023-04-02T00:59:56;100835.44;;;13.20;47.73
56042;BME280;48756;41.374;2.066;2023-04-02T01:05:00;100841.66;;;13.11;50.54
56042;BME280;48756;41.374;2.066;2023-04-02T01:12:49;100833.19;;;12.99;48.36
56042;BME280;48756;41.374;2.066;2023-04-02T01:15:20;100834.81;;;13.04;47.87
56042;BME280;48756;41.374;2.066;2023-04-02T01:18:01;100824.78;;;12.80;45.86
56042;BME280;48756;41.374;2.066;2023-04-02T01:23:17;100823.63;;;12.44;47.04
56042;BME280;48756;41.374;2.066;2023-04-02T01:25:47;100820.88;;;12.53;46.08
56042;BME280;48756;41.374;2.066;2023-04-02T01:28:16;100825.34;;;12.46;46.63
56042;BME280;48756;41.374;2.066;2023-04-02T01:30:48;100830.34;;;12.03;46.57
56042;BME280;48756;41.374;2.066;2023-04-02T01:33:15;100827.97;;;11.85;46.84
56042;BME280;48756;41.374;2.066;2023-04-02T01:35:41;100836.81;;;11.70;46.56
56042;BME280;48756;41.374;2.066;2023-04-02T01:38:10;100834.91;;;11.87;46.50
56042;BME280;48756;41.374;2.066;2023-04-02T01:40:39;100834.13;;;11.78;45.42
56042;BME280;48756;41.374;2.066;2023-04-02T01:45:52;100834.03;;;11.87;44.95
56042;BME280;48756;41.374;2.066;2023-04-02T01:48:18;100829.78;;;11.80;44.51
56042;BME280;48756;41.374;2.066;2023-04-02T01:50:46;100829.13;;;11.61;45.55
56042;BME280;48756;41.374;2.066;2023-04-02T01:53:14;100822.13;;;11.63;43.95
56042;BME280;48756;41.374;2.066;2023-04-02T01:55:42;100827.09;;;11.86;44.82
56042;BME280;48756;41.374;2.066;2023-04-02T01:58:09;100822.84;;;11.77;44.53
56042;BME280;48756;41.374;2.066;2023-04-02T02:00:35;100824.75;;;11.61;44.75
56042;BME280;48756;41.374;2.066;2023-04-02T02:03:05;100828.06;;;11.77;44.41
56042;BME280;48756;41.374;2.066;2023-04-02T02:05:32;100827.78;;;11.97;43.58
56042;BME280;48756;41.374;2.066;2023-04-02T02:07:57;100823.69;;;11.76;44.55
56042;BME280;48756;41.374;2.066;2023-04-02T02:10:32;100829.72;;;11.84;44.76
56042;BME280;48756;41.374;2.066;2023-04-02T02:12:57;100822.41;;;12.09;44.06
56042;BME280;48756;41.374;2.066;2023-04-02T02:15:24;100821.09;;;11.79;44.24
56042;BME280;48756;41.374;2.066;2023-04-02T02:17:50;100819.69;;;11.49;45.00
56042;BME280;48756;41.374;2.066;2023-04-02T02:20:18;100815.91;;;11.73;44.62
56042;BME280;48756;41.374;2.066;2023-04-02T02:22:45;100815.28;;;11.53;44.96
56042;BME280;48756;41.374;2.066;2023-04-02T02:25:18;100818.16;;;11.28;45.36
56042;BME280;48756;41.374;2.066;2023-04-02T02:32:46;100825.13;;;11.28;45.36
56042;BME280;48756;41.374;2.066;2023-04-02T02:35:17;100825.97;;;11.30;44.89
56042;BME280;48756;41.374;2.066;2023-04-02T02:37:45;100826.03;;;11.25;45.59
56042;BME280;48756;41.374;2.066;2023-04-02T02:40:15;100825.22;;;11.22;45.06
56042;BME280;48756;41.374;2.066;2023-04-02T02:42:43;100833.69;;;11.42;45.27
56042;BME280;48756;41.374;2.066;2023-04-02T02:45:13;100839.13;;;11.22;45.21
56042;BME280;48756;41.374;2.066;2023-04-02T02:47:41;100830.47;;;11.19;45.36
56042;BME280;48756;41.374;2.066;2023-04-02T02:50:12;100828.00;;;11.03;46.60
56042;BME280;48756;41.374;2.066;2023-04-02T02:52:38;100826.19;;;11.12;46.11
56042;BME280;48756;41.374;2.066;2023-04-02T02:57:33;100813.19;;;11.10;46.03
56042;BME280;48756;41.374;2.066;2023-04-02T03:00:00;100814.91;;;11.10;46.52
56042;BME280;48756;41.374;2.066;2023-04-02T03:02:29;100820.19;;;11.02;46.63
56042;BME280;48756;41.374;2.066;2023-04-02T03:04:54;100821.16;;;10.93;47.13
56042;BME280;48756;41.374;2.066;2023-04-02T03:07:21;100821.19;;;10.92;46.98
56042;BME280;48756;41.374;2.066;2023-04-02T03:14:52;100808.19;;;10.87;47.37
56042;BME280;48756;41.374;2.066;2023-04-02T03:17:28;100819.59;;;10.74;48.34
56042;BME280;48756;41.374;2.066;2023-04-02T03:19:57;100818.56;;;10.92;47.71
56042;BME280;48756;41.374;2.066;2023-04-02T03:22:30;100829.88;;;10.89;47.95
56042;BME280;48756;41.374;2.066;2023-04-02T03:25:15;100818.69;;;10.78;48.01
56042;BME280;48756;41.374;2.066;2023-04-02T03:27:43;100811.66;;;10.86;47.39
56042;BME280;48756;41.374;2.066;2023-04-02T03:32:57;100811.81;;;10.69;47.85
56042;BME280;48756;41.374;2.066;2023-04-02T03:35:34;100812.69;;;10.70;48.31
56042;BME280;48756;41.374;2.066;2023-04-02T03:38:03;100813.31;;;10.96;47.62
56042;BME280;48756;41.374;2.066;2023-04-02T03:40:30;100823.97;;;10.72;48.35
56042;BME280;48756;41.374;2.066;2023-04-02T03:45:25;100827.50;;;10.60;48.17
56042;BME280;48756;41.374;2.066;2023-04-02T03:47:53;100821.31;;;10.75;47.80
56042;BME280;48756;41.374;2.066;2023-04-02T03:52:52;100833.69;;;10.50;49.17
56042;BME280;48756;41.374;2.066;2023-04-02T03:55:22;100835.31;;;10.62;48.41
56042;BME280;48756;41.374;2.066;2023-04-02T03:57:59;100837.84;;;10.74;48.73
56042;BME280;48756;41.374;2.066;2023-04-02T04:00:31;100834.34;;;10.77;49.07
56042;BME280;48756;41.374;2.066;2023-04-02T04:03:04;100836.19;;;10.61;48.37
56042;BME280;48756;41.374;2.066;2023-04-02T04:05:34;100843.16;;;10.59;49.12
56042;BME280;48756;41.374;2.066;2023-04-02T04:08:02;100832.72;;;10.60;48.59
56042;BME280;48756;41.374;2.066;2023-04-02T04:10:29;100851.81;;;10.67;48.99
56042;BME280;48756;41.374;2.066;2023-04-02T04:12:55;100853.53;;;10.68;48.92
56042;BME280;48756;41.374;2.066;2023-04-02T04:15:26;100858.66;;;10.76;48.37
56042;BME280;48756;41.374;2.066;2023-04-02T04:20:39;100870.94;;;10.64;48.99
56042;BME280;48756;41.374;2.066;2023-04-02T04:23:15;100878.72;;;10.67;48.89
56042;BME280;48756;41.374;2.066;2023-04-02T04:25:42;100873.63;;;10.52;49.52
56042;BME280;48756;41.374;2.066;2023-04-02T04:30:44;100880.59;;;10.50;49.00
56042;BME280;48756;41.374;2.066;2023-04-02T04:33:14;100880.38;;;10.76;48.86
56042;BME280;48756;41.374;2.066;2023-04-02T04:35:48;100873.59;;;10.55;49.51
56042;BME280;48756;41.374;2.066;2023-04-02T04:38:16;100861.53;;;10.43;49.84
56042;BME280;48756;41.374;2.066;2023-04-02T04:40:48;100865.06;;;10.33;49.99
56042;BME280;48756;41.374;2.066;2023-04-02T04:43:24;100865.81;;;10.51;49.67
56042;BME280;48756;41.374;2.066;2023-04-02T04:45:55;100861.53;;;10.43;49.66
56042;BME280;48756;41.374;2.066;2023-04-02T04:48:30;100869.34;;;10.45;49.58
56042;BME280;48756;41.374;2.066;2023-04-02T04:51:02;100858.13;;;10.32;49.97
56042;BME280;48756;41.374;2.066;2023-04-02T04:53:29;100865.84;;;10.48;50.01
56042;BME280;48756;41.374;2.066;2023-04-02T04:55:55;100885.88;;;10.35;50.03
56042;BME280;48756;41.374;2.066;2023-04-02T04:58:32;100882.38;;;10.43;49.92
56042;BME280;48756;41.374;2.066;2023-04-02T05:01:02;100893.75;;;10.27;49.95
56042;BME280;48756;41.374;2.066;2023-04-02T05:03:50;100906.69;;;10.42;50.22
56042;BME280;48756;41.374;2.066;2023-04-02T05:06:23;100906.78;;;10.24;50.70
56042;BME280;48756;41.374;2.066;2023-04-02T05:08:50;100907.50;;;10.49;50.46
56042;BME280;48756;41.374;2.066;2023-04-02T05:11:20;100896.31;;;10.32;51.03
56042;BME280;48756;41.374;2.066;2023-04-02T05:13:52;100910.97;;;10.53;50.93
56042;BME280;48756;41.374;2.066;2023-04-02T05:16:27;100912.03;;;10.21;51.49
56042;BME280;48756;41.374;2.066;2023-04-02T05:18:56;100910.25;;;10.25;51.24
56042;BME280;48756;41.374;2.066;2023-04-02T05:21:35;100918.06;;;10.26;51.51
56042;BME280;48756;41.374;2.066;2023-04-02T05:31:28;100919.72;;;10.36;51.59
56042;BME280;48756;41.374;2.066;2023-04-02T05:33:59;100923.28;;;10.20;52.03
56042;BME280;48756;41.374;2.066;2023-04-02T05:36:26;100909.28;;;10.46;51.37
56042;BME280;48756;41.374;2.066;2023-04-02T05:38:53;100912.78;;;10.41;51.70
56042;BME280;48756;41.374;2.066;2023-04-02T05:43:46;100927.53;;;10.38;51.60
56042;BME280;48756;41.374;2.066;2023-04-02T05:46:15;100920.56;;;10.45;52.28
56042;BME280;48756;41.374;2.066;2023-04-02T05:48:41;100924.97;;;10.30;51.94
56042;BME280;48756;41.374;2.066;2023-04-02T05:51:18;100930.03;;;10.56;51.61
56042;BME280;48756;41.374;2.066;2023-04-02T05:53:46;100927.53;;;10.38;52.31
56042;BME280;48756;41.374;2.066;2023-04-02T05:58:59;100951.78;;;10.54;51.41
56042;BME280;48756;41.374;2.066;2023-04-02T06:01:35;100961.38;;;10.39;52.60
56042;BME280;48756;41.374;2.066;2023-04-02T06:04:07;100960.53;;;10.37;52.38
56042;BME280;48756;41.374;2.066;2023-04-02T06:09:10;100969.22;;;10.44;52.59
56042;BME280;48756;41.374;2.066;2023-04-02T06:11:41;100956.06;;;10.59;52.07
56042;BME280;48756;41.374;2.066;2023-04-02T06:14:11;100960.41;;;10.60;52.17
56042;BME280;48756;41.374;2.066;2023-04-02T06:16:38;100959.63;;;10.48;52.18
56042;BME280;48756;41.374;2.066;2023-04-02T06:19:05;100961.28;;;10.65;51.78
56042;BME280;48756;41.374;2.066;2023-04-02T06:21:34;100959.50;;;10.67;52.17
56042;BME280;48756;41.374;2.066;2023-04-02T06:24:02;100988.31;;;10.45;52.64
56042;BME280;48756;41.374;2.066;2023-04-02T06:26:33;100963.03;;;10.57;51.97
56042;BME280;48756;41.374;2.066;2023-04-02T06:29:07;100982.19;;;10.50;52.12
56042;BME280;48756;41.374;2.066;2023-04-02T06:34:21;100971.59;;;10.79;51.58
56042;BME280;48756;41.374;2.066;2023-04-02T06:36:47;100978.56;;;10.77;52.38
56042;BME280;48756;41.374;2.066;2023-04-02T06:39:16;100987.19;;;10.84;51.97
56042;BME280;48756;41.374;2.066;2023-04-02T06:41:43;100979.41;;;10.81;51.37
56042;BME280;48756;41.374;2.066;2023-04-02T06:44:17;100979.41;;;10.78;52.32
56042;BME280;48756;41.374;2.066;2023-04-02T06:46:49;100983.81;;;10.71;52.22
56042;BME280;48756;41.374;2.066;2023-04-02T06:49:18;100973.97;;;11.08;51.95
56042;BME280;48756;41.374;2.066;2023-04-02T06:51:46;100974.88;;;11.10;50.92
56042;BME280;48756;41.374;2.066;2023-04-02T06:54:14;100979.88;;;11.31;51.27
56042;BME280;48756;41.374;2.066;2023-04-02T06:59:06;100982.50;;;11.30;50.96
56042;BME280;48756;41.374;2.066;2023-04-02T07:01:36;100982.34;;;11.47;50.19
56042;BME280;48756;41.374;2.066;2023-04-02T07:04:04;100987.66;;;11.39;50.77
56042;BME280;48756;41.374;2.066;2023-04-02T07:06:29;100984.84;;;11.60;50.20
56042;BME280;48756;41.374;2.066;2023-04-02T07:08:55;100979.66;;;11.57;50.00
56042;BME280;48756;41.374;2.066;2023-04-02T07:11:20;100991.84;;;11.54;49.95
56042;BME280;48756;41.374;2.066;2023-04-02T07:13:47;100985.59;;;11.73;49.50
56042;BME280;48756;41.374;2.066;2023-04-02T07:16:18;100983.13;;;11.58;50.32
56042;BME280;48756;41.374;2.066;2023-04-02T07:18:44;100984.63;;;11.86;49.00
56042;BME280;48756;41.374;2.066;2023-04-02T07:21:10;100985.25;;;12.08;48.97
56042;BME280;48756;41.374;2.066;2023-04-02T07:23:35;100982.38;;;12.30;48.61
56042;BME280;48756;41.374;2.066;2023-04-02T07:26:01;100978.38;;;11.98;48.54
56042;BME280;48756;41.374;2.066;2023-04-02T07:28:27;100975.66;;;12.09;48.29
56042;BME280;48756;41.374;2.066;2023-04-02T07:30:53;100979.84;;;12.22;48.51
56042;BME280;48756;41.374;2.066;2023-04-02T07:33:19;100975.38;;;12.32;48.50
56042;BME280;48756;41.374;2.066;2023-04-02T07:35:46;100979.56;;;12.43;48.27
56042;BME280;48756;41.374;2.066;2023-04-02T07:38:11;100973.31;;;12.55;46.94
56042;BME280;48756;41.374;2.066;2023-04-02T07:40:37;100984.28;;;12.15;47.44
56042;BME280;48756;41.374;2.066;2023-04-02T07:43:03;100982.19;;;12.42;47.14
56042;BME280;48756;41.374;2.066;2023-04-02T07:45:28;100975.19;;;12.44;47.78
56042;BME280;48756;41.374;2.066;2023-04-02T07:47:54;100979.38;;;12.58;46.89
56042;BME280;48756;41.374;2.066;2023-04-02T07:50:19;100981.25;;;12.49;46.97
56042;BME280;48756;41.374;2.066;2023-04-02T07:52:44;100978.31;;;12.72;46.68
56042;BME280;48756;41.374;2.066;2023-04-02T07:55:11;100973.53;;;13.01;46.30
56042;BME280;48756;41.374;2.066;2023-04-02T07:57:47;100977.09;;;12.96;45.63
56042;BME280;48756;41.374;2.066;2023-04-02T08:00:13;100973.25;;;13.20;45.92
56042;BME280;48756;41.374;2.066;2023-04-02T08:02:39;100976.50;;;13.35;44.78
56042;BME280;48756;41.374;2.066;2023-04-02T08:05:13;100977.25;;;13.42;45.05
56042;BME280;48756;41.374;2.066;2023-04-02T08:07:39;100977.34;;;13.37;45.47
56042;BME280;48756;41.374;2.066;2023-04-02T08:10:05;100977.13;;;13.48;44.98
56042;BME280;48756;41.374;2.066;2023-04-02T08:12:31;100987.06;;;13.77;44.73
56042;BME280;48756;41.374;2.066;2023-04-02T08:14:56;100991.94;;;13.49;44.48
56042;BME280;48756;41.374;2.066;2023-04-02T08:17:22;100976.84;;;13.65;45.04
56042;BME280;48756;41.374;2.066;2023-04-02T08:19:47;100985.00;;;13.94;44.02
56042;BME280;48756;41.374;2.066;2023-04-02T08:22:13;100984.56;;;13.71;45.08
56042;BME280;48756;41.374;2.066;2023-04-02T08:24:38;100980.03;;;13.82;43.62
56042;BME280;48756;41.374;2.066;2023-04-02T08:27:03;100989.97;;;14.09;43.65
56042;BME280;48756;41.374;2.066;2023-04-02T08:29:29;100999.03;;;14.36;42.59
56042;BME280;48756;41.374;2.066;2023-04-02T08:31:58;100993.59;;;14.46;42.54
56042;BME280;48756;41.374;2.066;2023-04-02T08:34:23;101005.53;;;14.17;42.85
56042;BME280;48756;41.374;2.066;2023-04-02T08:36:49;101001.44;;;14.47;42.35
56042;BME280;48756;41.374;2.066;2023-04-02T08:39:15;101011.97;;;14.86;41.46
56042;BME280;48756;41.374;2.066;2023-04-02T08:41:44;100992.88;;;14.79;41.43
56042;BME280;48756;41.374;2.066;2023-04-02T08:44:17;100996.09;;;15.27;40.23
56042;BME280;48756;41.374;2.066;2023-04-02T08:46:57;100986.97;;;15.07;40.43
56042;BME280;48756;41.374;2.066;2023-04-02T08:49:28;100999.63;;;15.26;40.34
56042;BME280;48756;41.374;2.066;2023-04-02T08:51:55;101002.38;;;15.22;40.45
56042;BME280;48756;41.374;2.066;2023-04-02T08:54:25;100999.38;;;15.36;39.93
56042;BME280;48756;41.374;2.066;2023-04-02T08:56:55;100992.06;;;15.13;39.37
56042;BME280;48756;41.374;2.066;2023-04-02T08:59:25;100996.63;;;15.42;39.24
56042;BME280;48756;41.374;2.066;2023-04-02T09:04:20;100997.41;;;15.45;38.85
56042;BME280;48756;41.374;2.066;2023-04-02T09:06:47;100991.97;;;15.87;37.83
56042;BME280;48756;41.374;2.066;2023-04-02T09:09:14;100993.03;;;15.80;37.60
56042;BME280;48756;41.374;2.066;2023-04-02T09:11:43;100983.38;;;16.13;37.38
56042;BME280;48756;41.374;2.066;2023-04-02T09:14:15;100981.16;;;15.98;36.47
56042;BME280;48756;41.374;2.066;2023-04-02T09:21:55;100968.84;;;16.31;34.56
56042;BME280;48756;41.374;2.066;2023-04-02T09:24:24;100966.59;;;16.46;34.94
56042;BME280;48756;41.374;2.066;2023-04-02T09:26:50;100969.00;;;16.54;34.17
56042;BME280;48756;41.374;2.066;2023-04-02T09:29:22;100969.69;;;16.61;34.57
56042;BME280;48756;41.374;2.066;2023-04-02T09:32:00;100963.47;;;16.91;33.88
56042;BME280;48756;41.374;2.066;2023-04-02T09:34:30;100970.75;;;17.11;33.82
56042;BME280;48756;41.374;2.066;2023-04-02T09:36:56;100967.19;;;17.12;33.63
56042;BME280;48756;41.374;2.066;2023-04-02T09:39:22;100954.63;;;17.47;33.57
56042;BME280;48756;41.374;2.066;2023-04-02T09:41:49;100961.56;;;17.75;33.70
56042;BME280;48756;41.374;2.066;2023-04-02T09:44:23;100963.34;;;17.49;32.68
56042;BME280;48756;41.374;2.066;2023-04-02T09:46:57;100963.19;;;18.03;32.16
56042;BME280;48756;41.374;2.066;2023-04-02T09:49:25;100968.63;;;17.98;32.36
56042;BME280;48756;41.374;2.066;2023-04-02T09:52:06;100962.72;;;17.67;32.09
56042;BME280;48756;41.374;2.066;2023-04-02T09:54:32;100959.22;;;18.61;31.73
56042;BME280;48756;41.374;2.066;2023-04-02T09:57:05;100955.44;;;18.90;31.19
56042;BME280;48756;41.374;2.066;2023-04-02T09:59:30;100960.66;;;18.47;30.87
56042;BME280;48756;41.374;2.066;2023-04-02T10:01:57;100956.56;;;18.63;30.31
56042;BME280;48756;41.374;2.066;2023-04-02T10:04:31;100958.47;;;18.81;30.30
56042;BME280;48756;41.374;2.066;2023-04-02T10:06:57;100950.84;;;18.95;30.28
56042;BME280;48756;41.374;2.066;2023-04-02T10:09:29;100952.69;;;19.36;29.50
56042;BME280;48756;41.374;2.066;2023-04-02T10:11:57;100944.28;;;18.84;29.92
56042;BME280;48756;41.374;2.066;2023-04-02T10:14:27;100938.78;;;19.10;29.48
56042;BME280;48756;41.374;2.066;2023-04-02T10:16:55;100926.41;;;18.69;29.94
56042;BME280;48756;41.374;2.066;2023-04-02T10:19:24;100938.72;;;19.12;29.55
56042;BME280;48756;41.374;2.066;2023-04-02T10:21:53;100929.16;;;19.09;29.86
56042;BME280;48756;41.374;2.066;2023-04-02T10:24:19;100936.25;;;19.29;29.17
56042;BME280;48756;41.374;2.066;2023-04-02T10:32:07;100932.00;;;19.05;28.03
56042;BME280;48756;41.374;2.066;2023-04-02T10:34:53;100944.44;;;19.43;29.30
56042;BME280;48756;41.374;2.066;2023-04-02T10:39:56;100933.91;;;19.21;28.71
56042;BME280;48756;41.374;2.066;2023-04-02T10:52:30;100913.31;;;19.30;28.89
56042;BME280;48756;41.374;2.066;2023-04-02T10:55:02;100907.44;;;19.64;27.90
56042;BME280;48756;41.374;2.066;2023-04-02T10:57:35;100895.81;;;20.07;27.30
56042;BME280;48756;41.374;2.066;2023-04-02T11:05:28;100891.03;;;20.15;28.74
56042;BME280;48756;41.374;2.066;2023-04-02T11:08:01;100888.31;;;19.98;28.13
56042;BME280;48756;41.374;2.066;2023-04-02T11:10:29;100879.94;;;20.63;27.08
56042;BME280;48756;41.374;2.066;2023-04-02T11:12:58;100874.34;;;20.87;26.56
56042;BME280;48756;41.374;2.066;2023-04-02T11:15:25;100877.94;;;20.86;26.40
56042;BME280;48756;41.374;2.066;2023-04-02T11:17:51;100873.66;;;20.83;25.95
56042;BME280;48756;41.374;2.066;2023-04-02T11:23:04;100859.75;;;20.78;26.73
56042;BME280;48756;41.374;2.066;2023-04-02T11:25:30;100851.28;;;21.23;25.73
56042;BME280;48756;41.374;2.066;2023-04-02T11:28:10;100852.63;;;21.15;25.23
56042;BME280;48756;41.374;2.066;2023-04-02T11:30:36;100860.63;;;20.96;25.64
56042;BME280;48756;41.374;2.066;2023-04-02T11:33:22;100859.84;;;20.76;26.23
56042;BME280;48756;41.374;2.066;2023-04-02T11:35:48;100864.69;;;21.55;25.02
56042;BME280;48756;41.374;2.066;2023-04-02T11:40:51;100857.44;;;21.41;24.61
56042;BME280;48756;41.374;2.066;2023-04-02T11:46:00;100855.72;;;21.23;25.69
56042;BME280;48756;41.374;2.066;2023-04-02T11:48:30;100847.41;;;21.13;25.57
56042;BME280;48756;41.374;2.066;2023-04-02T11:50:58;100839.91;;;20.87;24.32
56042;BME280;48756;41.374;2.066;2023-04-02T11:53:27;100845.28;;;21.37;25.09
56042;BME280;48756;41.374;2.066;2023-04-02T11:58:39;100834.25;;;21.62;24.24
56042;BME280;48756;41.374;2.066;2023-04-02T12:09:17;100834.44;;;22.23;23.78
56042;BME280;48756;41.374;2.066;2023-04-02T12:11:43;100831.41;;;21.98;23.61
56042;BME280;48756;41.374;2.066;2023-04-02T12:16:53;100819.31;;;22.55;24.18
56042;BME280;48756;41.374;2.066;2023-04-02T12:19:19;100800.97;;;22.51;24.37
56042;BME280;48756;41.374;2.066;2023-04-02T12:21:45;100794.28;;;22.59;24.30
56042;BME280;48756;41.374;2.066;2023-04-02T12:24:18;100806.91;;;22.40;25.44
56042;BME280;48756;41.374;2.066;2023-04-02T12:26:44;100802.91;;;22.33;25.62
56042;BME280;48756;41.374;2.066;2023-04-02T12:31:42;100790.66;;;22.30;25.48
56042;BME280;48756;41.374;2.066;2023-04-02T12:34:12;100792.34;;;22.93;24.77
56042;BME280;48756;41.374;2.066;2023-04-02T12:36:38;100793.59;;;23.16;24.56
56042;BME280;48756;41.374;2.066;2023-04-02T12:39:12;100798.53;;;22.62;24.99
56042;BME280;48756;41.374;2.066;2023-04-02T12:41:40;100787.41;;;23.01;24.10
56042;BME280;48756;41.374;2.066;2023-04-02T12:44:10;100784.41;;;22.16;25.02
56042;BME280;48756;41.374;2.066;2023-04-02T12:46:39;100777.63;;;22.42;24.75
56042;BME280;48756;41.374;2.066;2023-04-02T12:51:36;100772.72;;;23.24;23.58
56042;BME280;48756;41.374;2.066;2023-04-02T12:54:02;100779.44;;;23.15;23.34
56042;BME280;48756;41.374;2.066;2023-04-02T12:56:28;100771.44;;;22.87;24.25
56042;BME280;48756;41.374;2.066;2023-04-02T12:58:54;100776.22;;;23.10;24.08
56042;BME280;48756;41.374;2.066;2023-04-02T13:01:20;100766.94;;;23.32;23.70
56042;BME280;48756;41.374;2.066;2023-04-02T13:03:58;100766.63;;;23.50;23.43
56042;BME280;48756;41.374;2.066;2023-04-02T13:06:24;100772.22;;;23.03;23.55
56042;BME280;48756;41.374;2.066;2023-04-02T13:08:51;100771.47;;;23.30;24.01
56042;BME280;48756;41.374;2.066;2023-04-02T13:11:17;100770.81;;;23.55;23.68
56042;BME280;48756;41.374;2.066;2023-04-02T13:13:43;100760.66;;;23.18;24.05
56042;BME280;48756;41.374;2.066;2023-04-02T13:18:42;100749.28;;;23.59;24.09
56042;BME280;48756;41.374;2.066;2023-04-02T13:23:45;100747.47;;;23.31;24.50
56042;BME280;48756;41.374;2.066;2023-04-02T13:28:36;100742.44;;;23.96;23.71
56042;BME280;48756;41.374;2.066;2023-04-02T13:31:01;100733.53;;;23.56;24.05
56042;BME280;48756;41.374;2.066;2023-04-02T13:33:26;100747.19;;;23.36;24.33
56042;BME280;48756;41.374;2.066;2023-04-02T13:35:51;100727.94;;;23.73;23.88
56042;BME280;48756;41.374;2.066;2023-04-02T13:38:17;100731.47;;;22.44;25.22
56042;BME280;48756;41.374;2.066;2023-04-02T13:40:42;100713.75;;;23.03;24.39
56042;BME280;48756;41.374;2.066;2023-04-02T13:43:08;100716.81;;;23.11;24.76
56042;BME280;48756;41.374;2.066;2023-04-02T13:45:36;100722.03;;;23.13;24.40
56042;BME280;48756;41.374;2.066;2023-04-02T13:48:02;100713.53;;;23.77;23.69
56042;BME280;48756;41.374;2.066;2023-04-02T13:50:28;100703.97;;;23.88;23.79
56042;BME280;48756;41.374;2.066;2023-04-02T13:52:56;100699.38;;;23.77;23.76
56042;BME280;48756;41.374;2.066;2023-04-02T13:55:22;100689.84;;;23.32;24.47
56042;BME280;48756;41.374;2.066;2023-04-02T13:57:49;100701.94;;;23.64;24.25
56042;BME280;48756;41.374;2.066;2023-04-02T14:00:16;100693.63;;;24.10;23.79
56042;BME280;48756;41.374;2.066;2023-04-02T14:02:43;100689.00;;;24.26;23.32
56042;BME280;48756;41.374;2.066;2023-04-02T14:15:37;100678.34;;;23.72;24.42
56042;BME280;48756;41.374;2.066;2023-04-02T14:23:13;100666.81;;;23.59;24.53
56042;BME280;48756;41.374;2.066;2023-04-02T14:25:45;100667.56;;;23.47;24.85
56042;BME280;48756;41.374;2.066;2023-04-02T14:33:24;100664.59;;;23.93;24.33
56042;BME280;48756;41.374;2.066;2023-04-02T14:35:57;100654.53;;;24.63;23.38
56042;BME280;48756;41.374;2.066;2023-04-02T14:38:35;100648.16;;;24.53;23.72
56042;BME280;48756;41.374;2.066;2023-04-02T14:41:16;100641.28;;;25.25;22.63
56042;BME280;48756;41.374;2.066;2023-04-02T14:46:08;100633.88;;;24.79;23.16
56042;BME280;48756;41.374;2.066;2023-04-02T14:51:04;100637.06;;;24.71;23.17
56042;BME280;48756;41.374;2.066;2023-04-02T14:53:39;100641.06;;;24.26;23.68
56042;BME280;48756;41.374;2.066;2023-04-02T14:56:08;100637.66;;;23.85;23.94
56042;BME280;48756;41.374;2.066;2023-04-02T14:58:42;100635.41;;;23.78;23.70
56042;BME280;48756;41.374;2.066;2023-04-02T15:01:30;100624.47;;;23.96;23.74
56042;BME280;48756;41.374;2.066;2023-04-02T15:06:24;100629.94;;;24.47;23.02
56042;BME280;48756;41.374;2.066;2023-04-02T15:08:53;100620.44;;;24.42;23.10
56042;BME280;48756;41.374;2.066;2023-04-02T15:11:24;100627.00;;;24.24;23.48
56042;BME280;48756;41.374;2.066;2023-04-02T15:13:55;100620.41;;;23.22;25.09
56042;BME280;48756;41.374;2.066;2023-04-02T15:16:24;100637.34;;;22.92;35.45
56042;BME280;48756;41.374;2.066;2023-04-02T15:19:00;100642.13;;;22.13;37.44
56042;BME280;48756;41.374;2.066;2023-04-02T15:21:50;100635.00;;;21.68;38.53
56042;BME280;48756;41.374;2.066;2023-04-02T15:29:45;100640.91;;;21.26;40.39
56042;BME280;48756;41.374;2.066;2023-04-02T15:40:06;100646.34;;;20.74;43.82
56042;BME280;48756;41.374;2.066;2023-04-02T15:42:43;100648.44;;;20.85;43.61
56042;BME280;48756;41.374;2.066;2023-04-02T15:45:15;100653.47;;;20.22;45.68
56042;BME280;48756;41.374;2.066;2023-04-02T15:47:53;100660.28;;;20.44;46.75
56042;BME280;48756;41.374;2.066;2023-04-02T15:58:23;100664.56;;;20.11;49.36
56042;BME280;48756;41.374;2.066;2023-04-02T16:10:56;100697.78;;;19.99;50.83
56042;BME280;48756;41.374;2.066;2023-04-02T16:15:49;100698.88;;;19.95;48.00